Flight Track Log - Related Links

Times and Time Zones

All times are in EDT time to prevent confusion due to time zone crossing. See the C-FTOH flight status page for this flight to view local times or setup timezone preferences in your user account.

Time Position Orientation Groundspeed Altitude Reporting Facility
EDT Latitude Longitude Course Direction KTS MPH feet Rate Location/Type
Wed 02:55:00 PM 23.1267 -81.4059 16° North  Level Estimated
Wed 02:55:07 PM 23.2958 -80.7739 16° North 414 476 19,100  Level Miami Center
Wed 02:56:00 PM 23.2331 -81.3718 16° North  Level Estimated
Wed 02:56:07 PM 23.3528 -80.6761 58° Northeast 393 452 20,900  Level Miami Center
Wed 02:57:00 PM 23.3396 -81.3378 16° North  Level Estimated
Wed 02:57:07 PM 23.4136 -80.5783 56° Northeast 393 452 22,500  Level Miami Center
Wed 02:58:00 PM 23.4460 -81.3037 16° North  Level Estimated
Wed 02:58:07 PM 23.4769 -80.4669 58° Northeast 398 458 23,900  Level Miami Center
Wed 02:59:00 PM 23.5524 -81.2695 16° North  Level Estimated
Wed 02:59:07 PM 23.5422 -80.3600 56° Northeast 416 479 25,400  Level Miami Center
Wed 03:00:00 PM 23.6588 -81.2353 16° North  Level Estimated
Wed 03:00:07 PM 23.6094 -80.2486 57° Northeast 428 493 27,000  Level Miami Center
Wed 03:01:07 PM 23.6769 -80.1303 58° Northeast 443 510 28,200 1,000 Climbing Miami Center
Wed 03:02:07 PM 23.7464 -80.0094 58° Northeast 454 522 29,000 1,050 Climbing Miami Center
Wed 03:03:07 PM 23.8175 -79.8908 57° Northeast 459 528 30,300 1,400 Climbing Miami Center
Wed 03:04:07 PM 23.8847 -79.7719 58° Northeast 459 528 31,800 1,300 Climbing Miami Center
Wed 03:05:07 PM 23.9581 -79.6511 56° Northeast 466 536 32,900 800 Climbing Miami Center
Wed 03:06:07 PM 24.0250 -79.5342 58° Northeast 466 536 33,400 550 Climbing Miami Center
Wed 03:07:07 PM 24.0922 -79.4014 61° Northeast 471 542 34,000 229 Climbing Miami Center
Wed 03:13:07 PM 24.6570 -79.0630 61° Northeast 394 453 35,000 143 Climbing FlightAware ADS-B
Wed 03:14:07 PM 24.7590 -79.0530 North 386 444 35,000  Level FlightAware ADS-B
Wed 03:14:52 PM 24.8330 -79.0460 North 386 444 35,000  Level FlightAware ADS-B
Wed 03:15:32 PM 24.9140 -79.0380 North 385 443 35,000  Level FlightAware ADS-B
Wed 03:16:32 PM 25.0240 -79.0280 North 385 443 35,000  Level FlightAware ADS-B
Wed 03:17:32 PM 25.1340 -79.0170 North 385 443 35,000  Level FlightAware ADS-B
Wed 03:18:37 PM 25.2500 -79.0060 North 386 444 35,000  Level FlightAware ADS-B
Wed 03:19:22 PM 25.3390 -78.9980 North 397 457 35,000  Level FlightAware ADS-B
Wed 03:20:02 PM 25.4080 -78.9920 North 397 457 35,000  Level FlightAware ADS-B
Wed 03:20:47 PM 25.4990 -78.9820 North 399 459 35,000  Level FlightAware ADS-B
Wed 03:21:27 PM 25.5740 -78.9750 North 400 460 35,000  Level FlightAware ADS-B
Wed 03:22:12 PM 25.6540 -78.9680 North 400 460 35,000  Level FlightAware ADS-B
Wed 03:22:52 PM 25.7300 -78.9600 North 401 461 35,000  Level FlightAware ADS-B
Wed 03:23:37 PM 25.8140 -78.9520 North 402 463 35,000  Level FlightAware ADS-B
Wed 03:24:17 PM 25.8890 -78.9450 North 403 464 35,000  Level FlightAware ADS-B
Wed 03:24:57 PM 25.9640 -78.9380 North 404 465 35,000  Level FlightAware ADS-B
Wed 03:25:42 PM 26.0470 -78.9300 North 406 467 35,000  Level FlightAware ADS-B
Wed 03:26:22 PM 26.1230 -78.9230 North 408 470 35,000  Level FlightAware ADS-B
Wed 03:27:07 PM 26.2080 -78.9140 North 410 472 35,000  Level FlightAware ADS-B
Wed 03:28:02 PM 26.3010 -78.9050 North 411 473 35,000  Level FlightAware ADS-B
Wed 03:28:42 PM 26.3650 -78.8990 North 411 473 35,000  Level FlightAware ADS-B
Wed 03:29:22 PM 26.4640 -78.8860 North 419 482 35,000  Level FlightAware ADS-B
Wed 03:30:07 PM 26.5510 -78.8760 North 422 486 35,000  Level FlightAware ADS-B
Wed 03:30:47 PM 26.6310 -78.8660 North 424 488 35,000  Level FlightAware ADS-B
Wed 03:31:32 PM 26.7160 -78.8560 North 423 487 35,000  Level FlightAware ADS-B
Wed 03:32:12 PM 26.7950 -78.8470 North 423 487 35,000  Level FlightAware ADS-B
Wed 03:33:07 PM 26.9000 -78.8340 North 424 488 35,000  Level FlightAware ADS-B
Wed 03:33:47 PM 26.9660 -78.8270 North 424 488 35,000  Level FlightAware ADS-B
Wed 03:34:27 PM 27.0320 -78.8190 North 424 488 35,000  Level FlightAware ADS-B
Wed 03:35:07 PM 27.0990 -78.8110 North 424 488 35,000  Level FlightAware ADS-B
Wed 03:36:07 PM 27.2561 -78.7914 North 425 489 35,000  Level Miami Center
Wed 03:37:07 PM 27.3669 -78.7792 North 434 499 35,000  Level Miami Center
Wed 03:38:07 PM 27.4861 -78.7647 North 429 494 35,000  Level Miami Center
Wed 03:39:07 PM 27.6158 -78.7503 North 429 494 35,000  Level Miami Center
Wed 03:40:07 PM 27.7350 -78.7358 North 424 488 35,000  Level Miami Center
Wed 03:41:07 PM 27.8542 -78.7214 North 431 496 35,000 -50 Level Miami Center
Wed 03:42:07 PM 27.9736 -78.7069 North 425 489 34,900  Descending Miami Center
Wed 03:43:07 PM 28.0969 -78.6900 North 425 489 35,000 50 Climbing Miami Center
Wed 03:44:07 PM 28.2161 -78.6756 North 425 489 35,000  Level Miami Center
Wed 03:45:07 PM 28.3394 -78.6633 North 430 495 35,000  Level Miami Center
Wed 03:46:07 PM 28.4606 -78.6489 North 430 495 35,000  Level Miami Center
Wed 03:47:07 PM 28.5819 -78.6342 North 425 489 35,000  Level Miami Center
Wed 03:48:07 PM 28.7031 -78.6219 North 430 495 35,000  Level Miami Center
Wed 03:49:07 PM 28.8244 -78.6050 North 430 495 35,000  Level Miami Center
Wed 03:50:07 PM 28.9497 -78.5878 North 437 503 35,000  Level Miami Center
Wed 03:51:07 PM 29.0689 -78.5731 North 437 503 35,000 -50 Level Miami Center
Wed 03:52:07 PM 29.1881 -78.5583 North 437 503 34,900 -50 Descending Miami Center
Wed 03:53:07 PM 29.3092 -78.5411 North 442 509 34,900 50 Level Miami Center
Wed 03:54:07 PM 29.4428 -78.5361 North 447 514 35,000 50 Climbing Miami Center
Wed 03:55:07 PM 29.5597 -78.5189 North 439 505 35,000  Level Miami Center
Wed 03:56:07 PM 29.6767 -78.5014 North 439 505 35,000  Level Miami Center
Wed 03:57:16 PM 29.7892 -78.4750 12° North 428 493 35,000  Level Jacksonville Center
Wed 03:58:16 PM 29.9139 -78.4622 North 428 493 35,000  Level Jacksonville Center
Wed 03:59:16 PM 30.0389 -78.4517 North 434 499 35,000 -50 Level Jacksonville Center
Wed 04:00:16 PM 30.1614 -78.4364 North 439 505 34,900  Descending Jacksonville Center
Wed 04:01:16 PM 30.2922 -78.4161 North 439 505 35,000 50 Climbing Jacksonville Center
Wed 04:02:16 PM 30.4108 -78.4033 North 434 499 35,000  Level Jacksonville Center
Wed 04:03:16 PM 30.5397 -78.3875 North 430 495 35,000  Level Jacksonville Center
Wed 04:04:16 PM 30.6558 -78.3700 North 427 491 35,000 -50 Level Jacksonville Center
Wed 04:05:16 PM 30.7806 -78.3542 North 439 505 34,900 350 Descending Jacksonville Center
Wed 04:06:16 PM 30.9033 -78.3389 North 448 516 35,700 750 Climbing Jacksonville Center
Wed 04:07:16 PM 31.0192 -78.3114 12° North 429 494 36,400 600 Climbing Jacksonville Center
Wed 04:08:16 PM 31.1258 -78.3183 357° North 429 494 36,900 300 Climbing Jacksonville Center
Wed 04:09:16 PM 31.2503 -78.2953 North 437 503 37,000 50 Climbing Jacksonville Center
Wed 04:10:16 PM 31.3869 -78.2689 North 450 518 37,000  Level Jacksonville Center
Wed 04:11:16 PM 31.5097 -78.2581 North 440 506 37,000 -50 Level Jacksonville Center
Wed 04:12:16 PM 31.6300 -78.2375 North 440 506 36,900  Descending Jacksonville Center
Wed 04:13:16 PM 31.7528 -78.2264 North 447 514 37,000 50 Climbing Jacksonville Center
Wed 04:14:16 PM 31.8731 -78.2056 North 435 501 37,000  Level Jacksonville Center
Wed 04:15:16 PM 31.9936 -78.1872 North 435 501 37,000  Level Jacksonville Center
Wed 04:16:16 PM 32.1161 -78.1736 North 435 501 37,000  Level Jacksonville Center
Wed 04:17:16 PM 32.2367 -78.1600 North 435 501 37,000  Level Jacksonville Center
Wed 04:18:16 PM 32.3572 -78.1464 North 435 501 37,000  Level Jacksonville Center
Wed 04:19:16 PM 32.4778 -78.1278 North 435 501 37,000  Level Jacksonville Center
Wed 04:20:16 PM 32.5981 -78.1117 North 435 501 37,000  Level Jacksonville Center
Wed 04:22:43 PM 32.8800 -78.0761 North 425 489 37,000  Level Washington Center
Wed 04:23:43 PM 33.0033 -78.0575 North 430 495 37,000  Level Washington Center
Wed 04:24:43 PM 33.1247 -78.0436 North 436 502 37,000  Level Washington Center
Wed 04:25:43 PM 33.2458 -78.0272 North 436 502 37,000  Level Washington Center
Wed 04:26:43 PM 33.3694 -78.0083 North 441 507 37,000  Level Washington Center
Wed 04:27:43 PM 33.4928 -77.9944 North 441 507 37,000  Level Washington Center
Wed 04:28:43 PM 33.6139 -77.9781 North 446 513 37,000 -50 Level Washington Center
Wed 04:29:43 PM 33.7353 -77.9617 North 446 513 36,900  Descending Washington Center
Wed 04:30:43 PM 33.8567 -77.9450 North 446 513 37,000 50 Climbing Washington Center
Wed 04:31:43 PM 33.9969 -77.9239 North 451 519 37,000  Level Washington Center
Wed 04:32:42 PM 34.1222 -77.9075 North 451 519 37,000  Level Washington Center
Wed 04:33:43 PM 34.2458 -77.8883 North 451 519 37,000 -50 Level Washington Center
Wed 04:34:43 PM 34.3714 -77.8642 North 451 519 36,900  Descending Washington Center
Wed 04:35:43 PM 34.4831 -77.8042 24° Northeast 439 505 37,000  Climbing Washington Center
Wed 04:36:44 PM 34.5969 -77.7417 24° Northeast 439 505 36,900  Descending Washington Center
Wed 04:37:43 PM 34.7067 -77.6789 25° Northeast 434 499 37,000  Climbing Washington Center
Wed 04:38:43 PM 34.8161 -77.6183 24° Northeast 429 494 36,900  Descending Washington Center
Wed 04:39:42 PM 34.9236 -77.5503 27° Northeast 429 494 37,000 50 Climbing Washington Center
Wed 04:40:42 PM 35.0331 -77.4869 25° Northeast 429 494 37,000  Level Washington Center
Wed 04:41:43 PM 35.1447 -77.4261 24° Northeast 429 494 37,000  Level Washington Center
Wed 04:42:43 PM 35.2561 -77.3597 26° Northeast 429 494 37,000  Level Washington Center
Wed 04:48:32 PM 35.9100 -76.9840 26° Northeast 441 507 37,000  Level FlightAware ADS-B
Wed 04:49:17 PM 35.9820 -76.9430 25° Northeast 441 507 37,000  Level FlightAware ADS-B
Wed 04:49:57 PM 36.0450 -76.9070 25° Northeast 441 507 37,000  Level FlightAware ADS-B
Wed 04:50:37 PM 36.1080 -76.8700 25° Northeast 441 507 37,000  Level FlightAware ADS-B
Wed 04:51:17 PM 36.1710 -76.8340 25° Northeast 441 507 37,000  Level FlightAware ADS-B
Wed 04:51:57 PM 36.2340 -76.7980 25° Northeast 441 507 37,000  Level FlightAware ADS-B
Wed 04:52:47 PM 36.3120 -76.7520 25° Northeast 441 507 37,000  Level FlightAware ADS-B
Wed 04:53:27 PM 36.3750 -76.7160 25° Northeast 441 507 37,000  Level FlightAware ADS-B
Wed 04:54:07 PM 36.4380 -76.6790 25° Northeast 441 507 37,000  Level FlightAware ADS-B
Wed 04:54:47 PM 36.5010 -76.6430 25° Northeast 441 507 37,000  Level FlightAware ADS-B
Wed 04:55:42 PM 36.6940 -76.5220 27° Northeast 37,000  Level FlightAware ADS-B
Wed 04:56:22 PM 36.7640 -76.4800 26° Northeast 448 516 37,000  Level FlightAware ADS-B
Wed 04:57:12 PM 36.8600 -76.4220 26° Northeast 449 517 37,000  Level FlightAware ADS-B
Wed 04:57:52 PM 36.9370 -76.3760 26° Northeast 448 516 37,000  Level FlightAware ADS-B
Wed 04:58:37 PM 37.0240 -76.3240 26° Northeast 448 516 37,000  Level FlightAware ADS-B
Wed 04:59:17 PM 37.0980 -76.2790 26° Northeast 446 513 37,000  Level FlightAware ADS-B
Wed 04:59:52 PM 37.1741 -76.2329 26° Northeast 445 512 37,000  Level FlightAware ADS-B
Wed 05:00:34 PM 37.2525 -76.1855 26° Northeast 443 510 37,000  Level FlightAware ADS-B
Wed 05:01:08 PM 37.3149 -76.1475 26° Northeast 441 507 37,000  Level FlightAware ADS-B
Wed 05:01:44 PM 37.3804 -76.1074 26° Northeast 441 507 37,000  Level FlightAware ADS-B
Wed 05:02:15 PM 37.4374 -76.0726 26° Northeast 439 505 37,000  Level FlightAware ADS-B
Wed 05:02:46 PM 37.4946 -76.0376 26° Northeast 439 505 37,000  Level FlightAware ADS-B
Wed 05:03:20 PM 37.5557 -76.0002 26° Northeast 438 504 37,000  Level FlightAware ADS-B
Wed 05:04:02 PM 37.6200 -75.9610 26° Northeast 430 495 37,000  Level FlightAware ADS-B
Wed 05:04:47 PM 37.7030 -75.9100 26° Northeast 428 493 37,000  Level FlightAware ADS-B
Wed 05:05:27 PM 37.7740 -75.8670 26° Northeast 434 499 37,000  Level FlightAware ADS-B
Wed 05:05:37 PM 37.8044 -75.8474 27° Northeast 433 498 37,000  Level FlightAware ADS-B
Wed 05:06:07 PM 37.8586 -75.8138 26° Northeast 432 497 37,000  Level FlightAware ADS-B
Wed 05:06:52 PM 37.9270 -75.7720 26° Northeast 432 497 37,000  Level FlightAware ADS-B
Wed 05:07:31 PM 38.0092 -75.7203 26° Northeast 434 499 37,000  Level FlightAware ADS-B
Wed 05:08:02 PM 38.0649 -75.6857 26° Northeast 437 503 37,000  Level FlightAware ADS-B
Wed 05:08:32 PM 38.1205 -75.6510 26° Northeast 438 504 37,000  Level FlightAware ADS-B
Wed 05:09:03 PM 38.1769 -75.6160 26° Northeast 438 504 37,000  Level FlightAware ADS-B
Wed 05:09:42 PM 38.2360 -75.5790 26° Northeast 432 497 37,000  Level FlightAware ADS-B
Wed 05:09:48 PM 38.2581 -75.5653 26° Northeast 438 504 37,000  Level FlightAware ADS-B
Wed 05:10:21 PM 38.3179 -75.5277 26° Northeast 440 506 37,000  Level FlightAware ADS-B
Wed 05:10:52 PM 38.3767 -75.4975 22° Northeast 435 501 37,000  Level FlightAware ADS-B
Wed 05:11:22 PM 38.4348 -75.4733 18° North 437 503 37,000  Level FlightAware ADS-B
Wed 05:12:17 PM 38.5391 -75.4302 18° North 437 503 37,000  Level FlightAware ADS-B
Wed 05:12:53 PM 38.6100 -75.4008 18° North 437 503 37,000  Level FlightAware ADS-B
Wed 05:13:07 PM 38.6368 -75.3905 17° North 434 499 37,000  Level FlightAware ADS-B
Wed 05:13:38 PM 38.6953 -75.3706 15° North 431 496 37,000  Level FlightAware ADS-B
Wed 05:14:09 PM 38.7554 -75.3504 15° North 428 493 37,000  Level FlightAware ADS-B
Wed 05:14:41 PM 38.8161 -75.3298 15° North 427 491 37,000  Level FlightAware ADS-B
Wed 05:15:15 PM 38.8805 -75.3080 15° North 426 490 37,000  Level FlightAware ADS-B
Wed 05:15:57 PM 38.9550 -75.2830 15° North 427 491 37,000  Level FlightAware ADS-B
Wed 05:16:15 PM 38.9963 -75.2686 15° North 426 490 37,000  Level FlightAware ADS-B
Wed 05:16:46 PM 39.0548 -75.2485 15° North 424 488 37,000  Level FlightAware ADS-B
Wed 05:17:22 PM 39.1226 -75.2252 15° North 424 488 37,000  Level FlightAware ADS-B
Wed 05:17:54 PM 39.1835 -75.2042 15° North 420 483 37,000  Level FlightAware ADS-B
Wed 05:18:25 PM 39.2411 -75.1844 15° North 420 483 37,000  Level FlightAware ADS-B
Wed 05:18:57 PM 39.3015 -75.1637 15° North 419 482 37,000  Level FlightAware ADS-B
Wed 05:19:30 PM 39.3628 -75.1425 15° North 420 483 37,000  Level FlightAware ADS-B
Wed 05:20:01 PM 39.4216 -75.1223 15° North 417 480 37,000  Level FlightAware ADS-B
Wed 05:20:32 PM 39.4783 -75.1027 15° North 416 479 37,000  Level FlightAware ADS-B
Wed 05:21:03 PM 39.5361 -75.0827 15° North 418 481 37,000  Level FlightAware ADS-B
Wed 05:21:33 PM 39.5923 -75.0631 15° North 420 483 37,000  Level FlightAware ADS-B
Wed 05:22:03 PM 39.6489 -75.0434 15° North 421 484 37,000  Level FlightAware ADS-B
Wed 05:22:42 PM 39.7226 -75.0177 15° North 421 484 37,000  Level FlightAware ADS-B
Wed 05:23:14 PM 39.7835 -74.9964 15° North 420 483 37,000  Level FlightAware ADS-B
Wed 05:23:44 PM 39.8396 -74.9767 15° North 420 483 37,000  Level FlightAware ADS-B
Wed 05:24:15 PM 39.8983 -74.9563 15° North 419 482 37,000  Level FlightAware ADS-B
Wed 05:24:47 PM 39.9579 -74.9352 15° North 419 482 37,000  Level FlightAware ADS-B
Wed 05:25:18 PM 40.0150 -74.9152 15° North 417 480 37,000  Level FlightAware ADS-B
Wed 05:25:53 PM 40.0793 -74.8926 15° North 416 479 37,000  Level FlightAware ADS-B
Wed 05:26:25 PM 40.1386 -74.8715 15° North 416 479 37,000  Level FlightAware ADS-B
Wed 05:26:55 PM 40.1944 -74.8517 15° North 418 481 37,000  Level FlightAware ADS-B
Wed 05:27:25 PM 40.2517 -74.8315 15° North 418 481 37,000  Level FlightAware ADS-B
Wed 05:27:59 PM 40.3147 -74.8089 15° North 419 482 37,000  Level FlightAware ADS-B
Wed 05:28:32 PM 40.3700 -74.7890 15° North 420 483 37,000  Level FlightAware ADS-B
Wed 05:28:43 PM 40.3972 -74.7797 15° North 422 486 37,000  Level FlightAware ADS-B
Wed 05:29:15 PM 40.4569 -74.7587 15° North 424 488 37,000  Level FlightAware ADS-B
Wed 05:29:45 PM 40.5141 -74.7381 15° North 424 488 37,000  Level FlightAware ADS-B
Wed 05:30:16 PM 40.5718 -74.7173 15° North 424 488 37,000  Level FlightAware ADS-B
Wed 05:30:47 PM 40.6306 -74.6964 15° North 423 487 37,000  Level FlightAware ADS-B
Wed 05:31:17 PM 40.6878 -74.6758 15° North 423 487 37,000  Level FlightAware ADS-B
Wed 05:31:48 PM 40.7463 -74.6546 15° North 426 490 37,000  Level FlightAware ADS-B
Wed 05:32:18 PM 40.8034 -74.6341 15° North 426 490 37,000  Level FlightAware ADS-B
Wed 05:32:50 PM 40.8636 -74.6122 15° North 427 491 37,000  Level FlightAware ADS-B
Wed 05:33:20 PM 40.9222 -74.5911 15° North 428 493 37,000  Level FlightAware ADS-B
Wed 05:33:53 PM 40.9845 -74.5686 15° North 428 493 37,000  Level FlightAware ADS-B
Wed 05:34:23 PM 41.0416 -74.5478 15° North 427 491 37,000  Level FlightAware ADS-B
Wed 05:35:00 PM 41.1116 -74.5197 17° North 429 494 37,000  Level FlightAware ADS-B
Wed 05:35:30 PM 41.1680 -74.4955 18° North 427 491 37,000  Level FlightAware ADS-B
Wed 05:36:00 PM 41.2253 -74.4709 18° North 427 491 37,000  Level FlightAware ADS-B
Wed 05:36:31 PM 41.2828 -74.4463 18° North 427 491 37,000  Level FlightAware ADS-B
Wed 05:37:02 PM 41.3410 -74.4215 18° North 428 493 37,000  Level FlightAware ADS-B
Wed 05:37:32 PM 41.3975 -74.3972 18° North 428 493 37,000  Level FlightAware ADS-B
Wed 05:38:02 PM 41.4546 -74.3725 18° North 431 496 37,000  Level FlightAware ADS-B
Wed 05:38:33 PM 41.5141 -74.3470 18° North 433 498 37,000  Level FlightAware ADS-B
Wed 05:39:04 PM 41.5715 -74.3221 18° North 435 501 37,000  Level FlightAware ADS-B
Wed 05:39:11 PM 41.5850 -74.3157 20° North 438 504 37,000  Level FlightAware ADS-B
Wed 05:39:43 PM 41.6461 -74.2832 22° Northeast 440 506 37,000  Level FlightAware ADS-B
Wed 05:40:14 PM 41.7041 -74.2520 22° Northeast 441 507 37,000  Level FlightAware ADS-B
Wed 05:40:47 PM 41.7675 -74.2179 22° Northeast 442 509 37,000  Level FlightAware ADS-B
Wed 05:41:18 PM 41.8257 -74.1867 22° Northeast 440 506 37,000  Level FlightAware ADS-B
Wed 05:41:50 PM 41.8853 -74.1546 22° Northeast 437 503 37,000  Level FlightAware ADS-B
Wed 05:42:27 PM 41.9500 -74.1200 22° Northeast 436 502 37,000  Level FlightAware ADS-B
Wed 05:43:17 PM 42.0420 -74.0710 22° Northeast 437 503 37,000  Level FlightAware ADS-B
Wed 05:43:57 PM 42.1060 -74.0380 21° North 437 503 37,000  Level FlightAware ADS-B
Wed 05:44:37 PM 42.1700 -74.0050 21° North 437 503 37,000  Level FlightAware ADS-B
Wed 05:45:17 PM 42.2340 -73.9720 21° North 437 503 37,000  Level FlightAware ADS-B
Wed 05:46:07 PM 42.3650 -73.8950 23° Northeast 442 509 37,000  Level FlightAware ADS-B
Wed 05:46:42 PM 42.4250 -73.8620 22° Northeast 442 509 37,000  Level FlightAware ADS-B
Wed 05:47:27 PM 42.5160 -73.8120 22° Northeast 441 507 37,000  Level FlightAware ADS-B
Wed 05:48:12 PM 42.6000 -73.7660 22° Northeast 440 506 37,000  Level FlightAware ADS-B
Wed 05:48:52 PM 42.6790 -73.7220 22° Northeast 440 506 37,000  Level FlightAware ADS-B
Wed 05:49:32 PM 42.7540 -73.6810 22° Northeast 441 507 37,000  Level FlightAware ADS-B
Wed 05:50:17 PM 42.8370 -73.6350 22° Northeast 438 504 37,000  Level FlightAware ADS-B
Wed 05:51:02 PM 42.9230 -73.5870 22° Northeast 438 504 37,000  Level FlightAware ADS-B
Wed 05:51:42 PM 42.9980 -73.5450 22° Northeast 438 504 37,000  Level FlightAware ADS-B
Wed 05:52:17 PM 43.0610 -73.5100 22° Northeast 439 505 37,000  Level FlightAware ADS-B
Wed 05:53:07 PM 43.1350 -73.4690 22° Northeast 440 506 37,000  Level FlightAware ADS-B
Wed 05:53:47 PM 43.2340 -73.4130 22° Northeast 445 512 37,000  Level FlightAware ADS-B
Wed 05:54:27 PM 43.3100 -73.3700 22° Northeast 447 514 37,000  Level FlightAware ADS-B
Wed 05:55:02 PM 43.3760 -73.3330 22° Northeast 450 518 37,000  Level FlightAware ADS-B
Wed 05:55:42 PM 43.4240 -73.3060 22° Northeast 451 519 37,000  Level FlightAware ADS-B
Wed 05:56:47 PM 43.5500 -73.2340 22° Northeast 453 521 37,000  Level FlightAware ADS-B
Wed 05:57:27 PM 43.6310 -73.1870 23° Northeast 455 524 37,000  Level FlightAware ADS-B
Wed 05:58:12 PM 43.7200 -73.1370 22° Northeast 454 522 37,000  Level FlightAware ADS-B
Wed 05:58:57 PM 43.8090 -73.0860 22° Northeast 457 526 37,000  Level FlightAware ADS-B
Wed 05:59:37 PM 43.8850 -73.0420 23° Northeast 455 524 37,000  Level FlightAware ADS-B
Wed 06:00:17 PM 43.9640 -72.9960 23° Northeast 455 524 37,000  Level FlightAware ADS-B
Wed 06:01:02 PM 44.0520 -72.9460 22° Northeast 455 524 37,000  Level FlightAware ADS-B
Wed 06:01:42 PM 44.1500 -72.8880 23° Northeast 454 522 37,000  Level FlightAware ADS-B
Wed 06:02:37 PM 44.2580 -72.8250 23° Northeast 452 520 37,000  Level FlightAware ADS-B
Wed 06:03:22 PM 44.3420 -72.7760 23° Northeast 451 519 37,000  Level FlightAware ADS-B
Wed 06:04:02 PM 44.4220 -72.7290 23° Northeast 449 517 37,000  Level FlightAware ADS-B
Wed 06:04:47 PM 44.5000 -72.6830 23° Northeast 449 517 37,000  Level FlightAware ADS-B
Wed 06:05:27 PM 44.5840 -72.6330 23° Northeast 448 516 37,000  Level FlightAware ADS-B
Wed 06:06:12 PM 44.6700 -72.5830 22° Northeast 448 516 37,000  Level FlightAware ADS-B
Wed 06:06:52 PM 44.7460 -72.5370 23° Northeast 448 516 37,000  Level FlightAware ADS-B
Wed 06:07:32 PM 44.8210 -72.4930 23° Northeast 448 516 37,000  Level FlightAware ADS-B
Wed 06:08:17 PM 44.9100 -72.4400 23° Northeast 449 517 37,000  Level FlightAware ADS-B
Wed 06:08:57 PM 44.9870 -72.3940 23° Northeast 448 516 37,000  Level FlightAware ADS-B
Wed 06:09:42 PM 45.0690 -72.3440 23° Northeast 448 516 37,000  Level FlightAware ADS-B
Wed 06:10:22 PM 45.1460 -72.2980 23° Northeast 448 516 37,000 -525 Level FlightAware ADS-B
Wed 06:11:02 PM 45.2230 -72.2510 23° Northeast 454 522 36,300 -988 Descending FlightAware ADS-B
Wed 06:11:47 PM 45.3070 -72.2000 23° Northeast 458 527 35,600 -1,129 Descending FlightAware ADS-B
Wed 06:12:27 PM 45.3830 -72.1540 23° Northeast 455 524 34,700 -2,100 Descending FlightAware ADS-B
Wed 06:13:07 PM 45.4630 -72.1050 23° Northeast 458 527 32,800 -2,612 Descending FlightAware ADS-B
Wed 06:13:52 PM 45.5450 -72.0550 23° Northeast 456 525 31,000 -2,400 Descending FlightAware ADS-B
Wed 06:14:32 PM 45.6290 -72.0030 23° Northeast 450 518 29,400 -2,259 Descending FlightAware ADS-B
Wed 06:15:17 PM 45.7170 -71.9480 24° Northeast 438 504 27,800 -2,118 Descending FlightAware ADS-B
Wed 06:15:57 PM 45.7910 -71.9030 23° Northeast 429 494 26,400 -2,025 Descending FlightAware ADS-B
Wed 06:16:37 PM 45.8590 -71.8610 23° Northeast 420 483 25,100 -1,976 Descending FlightAware ADS-B
Wed 06:17:22 PM 45.9400 -71.8110 23° Northeast 409 471 23,600 -1,950 Descending FlightAware ADS-B
Wed 06:17:57 PM 45.9970 -71.7750 24° Northeast 402 463 22,500 -1,976 Descending FlightAware ADS-B
Wed 06:18:47 PM 46.0840 -71.7200 24° Northeast 394 453 20,800 -2,000 Descending FlightAware ADS-B
Wed 06:19:27 PM 46.1510 -71.6920 16° North 366 421 19,500 -2,118 Descending FlightAware ADS-B
Wed 06:20:12 PM 46.2260 -71.6740 North 381 438 17,800 -2,259 Descending FlightAware ADS-B
Wed 06:20:52 PM 46.2890 -71.6230 29° Northeast 396 456 16,300 -2,025 Descending FlightAware ADS-B
Wed 06:21:32 PM 46.3490 -71.5650 34° Northeast 386 444 15,100 -1,800 Descending FlightAware ADS-B
Wed 06:22:12 PM 46.4080 -71.5100 33° Northeast 373 429 13,900 -1,800 Descending FlightAware ADS-B
Wed 06:22:52 PM 46.4650 -71.4560 33° Northeast 363 418 12,700 -1,800 Descending FlightAware ADS-B
Wed 06:23:32 PM 46.5200 -71.4040 33° Northeast 352 405 11,500 -1,553 Descending FlightAware ADS-B
Wed 06:24:17 PM 46.5800 -71.3470 33° Northeast 336 387 10,500 -988 Descending FlightAware ADS-B
Wed 06:24:57 PM 46.6290 -71.2990 34° Northeast 306 352 10,100 -686 Descending FlightAware ADS-B
Wed 06:25:27 PM 46.6640 -71.2670 32° Northeast 293 337 9,700 -933 Descending FlightAware ADS-B
Wed 06:25:42 PM 46.6800 -71.2510 34° Northeast 290 334 9,400 -1,200 Descending FlightAware ADS-B
Wed 06:26:12 PM 46.7130 -71.2190 34° Northeast 285 328 8,800 -1,309 Descending FlightAware ADS-B
Wed 06:26:37 PM 46.7400 -71.1930 33° Northeast 280 322 8,200 -1,309 Descending FlightAware ADS-B
Wed 06:27:07 PM 46.7730 -71.1620 33° Northeast 276 318 7,600 -1,091 Descending FlightAware ADS-B
Wed 06:27:32 PM 46.7970 -71.1380 34° Northeast 270 311 7,200 -1,200 Descending FlightAware ADS-B
Wed 06:28:02 PM 46.8300 -71.1120 28° Northeast 249 287 6,500 -1,200 Descending FlightAware ADS-B
Wed 06:28:17 PM 46.8460 -71.1060 14° North 237 273 6,300 -900 Descending FlightAware ADS-B
Wed 06:28:42 PM 46.8720 -71.0950 16° North 227 261 5,900 -1,029 Descending FlightAware ADS-B
Wed 06:28:52 PM 46.8820 -71.0910 15° North 219 252 5,700 -1,400 Descending FlightAware ADS-B
Wed 06:29:12 PM 46.8990 -71.1000 340° North 200 230 5,200 -1,371 Descending FlightAware ADS-B
Wed 06:29:27 PM 46.9060 -71.1160 303° West 188 216 4,900 -900 Descending FlightAware ADS-B
Wed 06:29:52 PM 46.9080 -71.1450 276° West 170 196 4,600 -1,091 Descending FlightAware ADS-B
Wed 06:30:22 PM 46.9030 -71.1790 258° West 174 200 3,900 -1,300 Descending FlightAware ADS-B
Wed 06:30:52 PM 46.8950 -71.2110 250° West 173 199 3,300 -1,200 Descending FlightAware ADS-B
Wed 06:31:17 PM 46.8880 -71.2390 250° West 172 198 2,800 -1,091 Descending FlightAware ADS-B
Wed 06:31:47 PM 46.8760 -71.2690 240° Southwest 171 197 2,300 -982 Descending FlightAware ADS-B
Wed 06:32:12 PM 46.8630 -71.2890 226° Southwest 169 194 1,900 -982 Descending FlightAware ADS-B
Wed 06:32:42 PM 46.8470 -71.3120 225° Southwest 153 176 1,400 -873 Descending FlightAware ADS-B
Wed 06:33:07 PM 46.8350 -71.3300 226° Southwest 149 171 1,100 -700 Descending FlightAware ADS-B
Wed 06:33:42 PM 46.8180 -71.3550 225° Southwest 148 170 700 -700 Descending FlightAware ADS-B
Wed 06:34:07 PM 46.8060 -71.3720 224° Southwest 151 174 400 -400 Descending FlightAware ADS-B
Wed 06:34:42 PM 46.7900 -71.3940 223° Southwest 150 173 300 -171 Descending FlightAware ADS-B

Login

Don't have an account? Register now (free) for customized features, flight alerts, and more!